sensor_id;sensor_type;location;lat;lon;timestamp;temperature;humidity
7204;DHT22;3643;52.460;13.322;2023-06-26T00:01:28;19.80;99.90
7204;DHT22;3643;52.460;13.322;2023-06-26T00:03:58;19.80;99.90
7204;DHT22;3643;52.460;13.322;2023-06-26T00:06:29;19.80;99.90
7204;DHT22;3643;52.460;13.322;2023-06-26T00:08:58;19.80;99.90
7204;DHT22;3643;52.460;13.322;2023-06-26T00:11:26;19.80;99.90
7204;DHT22;3643;52.460;13.322;2023-06-26T00:13:58;19.70;99.90
7204;DHT22;3643;52.460;13.322;2023-06-26T00:16:27;19.70;99.90
7204;DHT22;3643;52.460;13.322;2023-06-26T00:18:55;19.60;99.90
7204;DHT22;3643;52.460;13.322;2023-06-26T00:21:23;19.70;99.90
7204;DHT22;3643;52.460;13.322;2023-06-26T00:23:53;19.60;99.90
7204;DHT22;3643;52.460;13.322;2023-06-26T00:26:21;19.60;99.90
7204;DHT22;3643;52.460;13.322;2023-06-26T00:28:51;19.50;99.90
7204;DHT22;3643;52.460;13.322;2023-06-26T00:31:19;19.50;99.90
7204;DHT22;3643;52.460;13.322;2023-06-26T00:33:48;19.50;99.90
7204;DHT22;3643;52.460;13.322;2023-06-26T00:36:16;19.50;99.90
7204;DHT22;3643;52.460;13.322;2023-06-26T00:38:44;19.50;99.90
7204;DHT22;3643;52.460;13.322;2023-06-26T00:41:14;19.50;99.90
7204;DHT22;3643;52.460;13.322;2023-06-26T00:43:42;19.50;99.90
7204;DHT22;3643;52.460;13.322;2023-06-26T00:46:12;19.50;99.90
7204;DHT22;3643;52.460;13.322;2023-06-26T00:48:42;19.50;99.90
7204;DHT22;3643;52.460;13.322;2023-06-26T00:51:12;19.50;99.90
7204;DHT22;3643;52.460;13.322;2023-06-26T00:53:42;19.50;99.90
7204;DHT22;3643;52.460;13.322;2023-06-26T00:56:10;19.50;99.90
7204;DHT22;3643;52.460;13.322;2023-06-26T00:58:40;19.50;99.90
7204;DHT22;3643;52.460;13.322;2023-06-26T01:01:09;19.50;99.90
7204;DHT22;3643;52.460;13.322;2023-06-26T01:03:41;19.50;99.90
7204;DHT22;3643;52.460;13.322;2023-06-26T01:06:11;19.50;99.90
7204;DHT22;3643;52.460;13.322;2023-06-26T01:08:41;19.50;99.90
7204;DHT22;3643;52.460;13.322;2023-06-26T01:11:10;19.50;99.90
7204;DHT22;3643;52.460;13.322;2023-06-26T01:13:41;19.40;99.90
7204;DHT22;3643;52.460;13.322;2023-06-26T01:16:10;19.40;99.90
7204;DHT22;3643;52.460;13.322;2023-06-26T01:18:40;19.40;99.90
7204;DHT22;3643;52.460;13.322;2023-06-26T01:21:10;19.40;99.90
7204;DHT22;3643;52.460;13.322;2023-06-26T01:23:51;19.40;99.90
7204;DHT22;3643;52.460;13.322;2023-06-26T01:26:27;19.40;99.90
7204;DHT22;3643;52.460;13.322;2023-06-26T01:28:58;19.50;99.90
7204;DHT22;3643;52.460;13.322;2023-06-26T01:31:29;19.50;99.90
7204;DHT22;3643;52.460;13.322;2023-06-26T01:33:59;19.50;99.90
7204;DHT22;3643;52.460;13.322;2023-06-26T01:36:27;19.50;99.90
7204;DHT22;3643;52.460;13.322;2023-06-26T01:38:55;19.50;99.90
7204;DHT22;3643;52.460;13.322;2023-06-26T01:41:25;19.50;99.90
7204;DHT22;3643;52.460;13.322;2023-06-26T01:44:09;19.50;99.90
7204;DHT22;3643;52.460;13.322;2023-06-26T01:46:42;19.50;99.90
7204;DHT22;3643;52.460;13.322;2023-06-26T01:49:19;19.50;99.90
7204;DHT22;3643;52.460;13.322;2023-06-26T01:51:58;19.50;99.90
7204;DHT22;3643;52.460;13.322;2023-06-26T01:54:30;19.50;99.90
7204;DHT22;3643;52.460;13.322;2023-06-26T01:57:02;19.50;99.90
7204;DHT22;3643;52.460;13.322;2023-06-26T01:59:32;19.50;99.90
7204;DHT22;3643;52.460;13.322;2023-06-26T02:02:01;19.50;99.90
7204;DHT22;3643;52.460;13.322;2023-06-26T02:04:29;19.50;99.90
7204;DHT22;3643;52.460;13.322;2023-06-26T02:06:58;19.50;99.90
7204;DHT22;3643;52.460;13.322;2023-06-26T02:09:26;19.50;99.90
7204;DHT22;3643;52.460;13.322;2023-06-26T02:11:54;19.50;99.90
7204;DHT22;3643;52.460;13.322;2023-06-26T02:14:24;19.50;99.90
7204;DHT22;3643;52.460;13.322;2023-06-26T02:16:52;19.50;99.90
7204;DHT22;3643;52.460;13.322;2023-06-26T02:19:20;19.50;99.90
7204;DHT22;3643;52.460;13.322;2023-06-26T02:21:49;19.50;99.90
7204;DHT22;3643;52.460;13.322;2023-06-26T02:24:17;19.40;99.90
7204;DHT22;3643;52.460;13.322;2023-06-26T02:26:46;19.40;99.90
7204;DHT22;3643;52.460;13.322;2023-06-26T02:29:16;19.40;99.90
7204;DHT22;3643;52.460;13.322;2023-06-26T02:31:45;19.40;99.90
7204;DHT22;3643;52.460;13.322;2023-06-26T02:34:13;19.40;99.90
7204;DHT22;3643;52.460;13.322;2023-06-26T02:36:42;19.40;99.90
7204;DHT22;3643;52.460;13.322;2023-06-26T02:39:10;19.30;99.90
7204;DHT22;3643;52.460;13.322;2023-06-26T02:41:38;19.30;99.90
7204;DHT22;3643;52.460;13.322;2023-06-26T02:44:06;19.20;99.90
7204;DHT22;3643;52.460;13.322;2023-06-26T02:46:35;19.20;99.90
7204;DHT22;3643;52.460;13.322;2023-06-26T02:49:04;19.20;99.90
7204;DHT22;3643;52.460;13.322;2023-06-26T02:51:33;19.20;99.90
7204;DHT22;3643;52.460;13.322;2023-06-26T02:54:01;19.10;99.90
7204;DHT22;3643;52.460;13.322;2023-06-26T02:56:30;19.10;99.90
7204;DHT22;3643;52.460;13.322;2023-06-26T02:58:58;19.10;99.90
7204;DHT22;3643;52.460;13.322;2023-06-26T03:01:27;19.10;99.90
7204;DHT22;3643;52.460;13.322;2023-06-26T03:03:55;19.10;99.90
7204;DHT22;3643;52.460;13.322;2023-06-26T03:06:26;19.00;99.90
7204;DHT22;3643;52.460;13.322;2023-06-26T03:08:54;19.00;99.90
7204;DHT22;3643;52.460;13.322;2023-06-26T03:11:22;19.00;99.90
7204;DHT22;3643;52.460;13.322;2023-06-26T03:13:51;19.00;99.90
7204;DHT22;3643;52.460;13.322;2023-06-26T03:16:19;19.00;99.90
7204;DHT22;3643;52.460;13.322;2023-06-26T03:18:47;19.00;99.90
7204;DHT22;3643;52.460;13.322;2023-06-26T03:21:16;19.00;99.90
7204;DHT22;3643;52.460;13.322;2023-06-26T03:23:46;19.00;99.90
7204;DHT22;3643;52.460;13.322;2023-06-26T03:26:14;19.10;99.90
7204;DHT22;3643;52.460;13.322;2023-06-26T03:28:42;19.10;99.90
7204;DHT22;3643;52.460;13.322;2023-06-26T03:31:10;19.20;99.90
7204;DHT22;3643;52.460;13.322;2023-06-26T03:33:39;19.30;99.90
7204;DHT22;3643;52.460;13.322;2023-06-26T03:36:07;19.40;99.90
7204;DHT22;3643;52.460;13.322;2023-06-26T03:38:36;19.50;99.90
7204;DHT22;3643;52.460;13.322;2023-06-26T03:41:06;19.60;99.90
7204;DHT22;3643;52.460;13.322;2023-06-26T03:43:34;19.70;99.90
7204;DHT22;3643;52.460;13.322;2023-06-26T03:46:06;19.90;99.90
7204;DHT22;3643;52.460;13.322;2023-06-26T03:48:34;20.00;99.90
7204;DHT22;3643;52.460;13.322;2023-06-26T03:51:04;20.10;99.90
7204;DHT22;3643;52.460;13.322;2023-06-26T03:53:33;20.20;99.90
7204;DHT22;3643;52.460;13.322;2023-06-26T03:56:02;20.30;99.90
7204;DHT22;3643;52.460;13.322;2023-06-26T03:58:31;21.10;99.90
7204;DHT22;3643;52.460;13.322;2023-06-26T04:00:59;20.60;99.90
7204;DHT22;3643;52.460;13.322;2023-06-26T04:03:28;20.90;99.90
7204;DHT22;3643;52.460;13.322;2023-06-26T04:05:57;21.00;99.90
7204;DHT22;3643;52.460;13.322;2023-06-26T04:08:25;21.10;99.90
7204;DHT22;3643;52.460;13.322;2023-06-26T04:10:54;21.10;99.90
7204;DHT22;3643;52.460;13.322;2023-06-26T04:13:24;21.00;99.90
7204;DHT22;3643;52.460;13.322;2023-06-26T04:15:54;20.90;99.90
7204;DHT22;3643;52.460;13.322;2023-06-26T04:18:22;20.80;99.90
7204;DHT22;3643;52.460;13.322;2023-06-26T04:21:08;20.70;99.90
7204;DHT22;3643;52.460;13.322;2023-06-26T04:23:39;20.60;99.90
7204;DHT22;3643;52.460;13.322;2023-06-26T04:26:07;20.60;99.90
7204;DHT22;3643;52.460;13.322;2023-06-26T04:28:36;20.70;99.90
7204;DHT22;3643;52.460;13.322;2023-06-26T04:31:06;20.70;99.90
7204;DHT22;3643;52.460;13.322;2023-06-26T04:33:35;20.80;99.90
7204;DHT22;3643;52.460;13.322;2023-06-26T04:36:08;20.90;99.90
7204;DHT22;3643;52.460;13.322;2023-06-26T04:38:38;21.00;99.90
7204;DHT22;3643;52.460;13.322;2023-06-26T04:41:06;21.20;99.90
7204;DHT22;3643;52.460;13.322;2023-06-26T04:43:34;21.40;99.90
7204;DHT22;3643;52.460;13.322;2023-06-26T04:46:02;21.50;99.90
7204;DHT22;3643;52.460;13.322;2023-06-26T04:48:32;21.60;99.90
7204;DHT22;3643;52.460;13.322;2023-06-26T04:51:00;21.60;99.90
7204;DHT22;3643;52.460;13.322;2023-06-26T04:53:28;21.70;99.90
7204;DHT22;3643;52.460;13.322;2023-06-26T04:55:57;21.90;99.90
7204;DHT22;3643;52.460;13.322;2023-06-26T04:58:25;21.90;99.90
7204;DHT22;3643;52.460;13.322;2023-06-26T05:00:53;22.10;99.90
7204;DHT22;3643;52.460;13.322;2023-06-26T05:03:22;22.20;99.90
7204;DHT22;3643;52.460;13.322;2023-06-26T05:05:52;22.40;99.90
7204;DHT22;3643;52.460;13.322;2023-06-26T05:08:21;22.90;99.90
7204;DHT22;3643;52.460;13.322;2023-06-26T05:10:50;23.70;99.90
7204;DHT22;3643;52.460;13.322;2023-06-26T05:13:20;24.50;99.90
7204;DHT22;3643;52.460;13.322;2023-06-26T05:15:49;24.50;99.90
7204;DHT22;3643;52.460;13.322;2023-06-26T05:18:18;24.60;99.90
7204;DHT22;3643;52.460;13.322;2023-06-26T05:20:47;24.60;99.90
7204;DHT22;3643;52.460;13.322;2023-06-26T05:23:17;24.40;99.90
7204;DHT22;3643;52.460;13.322;2023-06-26T05:25:45;23.90;99.90
7204;DHT22;3643;52.460;13.322;2023-06-26T05:28:14;23.50;99.90
7204;DHT22;3643;52.460;13.322;2023-06-26T05:30:43;23.40;99.90
7204;DHT22;3643;52.460;13.322;2023-06-26T05:33:12;23.20;99.90
7204;DHT22;3643;52.460;13.322;2023-06-26T05:35:43;22.90;99.90
7204;DHT22;3643;52.460;13.322;2023-06-26T05:38:14;22.90;99.90
7204;DHT22;3643;52.460;13.322;2023-06-26T05:40:44;23.00;99.90
7204;DHT22;3643;52.460;13.322;2023-06-26T05:43:13;23.30;99.90
7204;DHT22;3643;52.460;13.322;2023-06-26T05:45:41;23.80;99.90
7204;DHT22;3643;52.460;13.322;2023-06-26T05:48:10;24.50;99.90
7204;DHT22;3643;52.460;13.322;2023-06-26T05:50:39;25.40;99.90
7204;DHT22;3643;52.460;13.322;2023-06-26T05:53:09;26.00;99.90
7204;DHT22;3643;52.460;13.322;2023-06-26T05:55:38;26.60;99.90
7204;DHT22;3643;52.460;13.322;2023-06-26T05:58:11;27.90;99.90
7204;DHT22;3643;52.460;13.322;2023-06-26T06:00:40;29.10;99.90
7204;DHT22;3643;52.460;13.322;2023-06-26T06:03:10;29.70;99.90
7204;DHT22;3643;52.460;13.322;2023-06-26T06:05:38;30.20;99.90
7204;DHT22;3643;52.460;13.322;2023-06-26T06:08:06;30.10;99.90
7204;DHT22;3643;52.460;13.322;2023-06-26T06:10:35;30.10;99.90
7204;DHT22;3643;52.460;13.322;2023-06-26T06:13:04;30.50;99.40
7204;DHT22;3643;52.460;13.322;2023-06-26T06:15:33;30.70;99.60
7204;DHT22;3643;52.460;13.322;2023-06-26T06:18:02;30.40;99.30
7204;DHT22;3643;52.460;13.322;2023-06-26T06:20:30;30.90;99.60
7204;DHT22;3643;52.460;13.322;2023-06-26T06:22:58;30.10;99.20
7204;DHT22;3643;52.460;13.322;2023-06-26T06:25:27;29.90;99.30
7204;DHT22;3643;52.460;13.322;2023-06-26T06:27:55;29.80;99.30
7204;DHT22;3643;52.460;13.322;2023-06-26T06:30:24;29.60;99.40
7204;DHT22;3643;52.460;13.322;2023-06-26T06:33:12;29.50;99.70
7204;DHT22;3643;52.460;13.322;2023-06-26T06:35:40;30.30;99.30
7204;DHT22;3643;52.460;13.322;2023-06-26T06:38:08;30.30;99.10
7204;DHT22;3643;52.460;13.322;2023-06-26T06:40:37;30.40;99.10
7204;DHT22;3643;52.460;13.322;2023-06-26T06:43:05;30.40;98.90
7204;DHT22;3643;52.460;13.322;2023-06-26T06:45:33;30.80;99.10
7204;DHT22;3643;52.460;13.322;2023-06-26T06:48:02;30.60;98.40
7204;DHT22;3643;52.460;13.322;2023-06-26T06:50:31;30.50;98.50
7204;DHT22;3643;52.460;13.322;2023-06-26T06:52:59;30.90;98.40
7204;DHT22;3643;52.460;13.322;2023-06-26T06:55:28;31.70;97.90
7204;DHT22;3643;52.460;13.322;2023-06-26T06:57:56;32.10;97.70
7204;DHT22;3643;52.460;13.322;2023-06-26T07:00:24;32.10;97.20
7204;DHT22;3643;52.460;13.322;2023-06-26T07:02:53;33.30;96.80
7204;DHT22;3643;52.460;13.322;2023-06-26T07:05:23;34.20;95.50
7204;DHT22;3643;52.460;13.322;2023-06-26T07:07:53;34.30;95.30
7204;DHT22;3643;52.460;13.322;2023-06-26T07:10:21;36.10;94.70
7204;DHT22;3643;52.460;13.322;2023-06-26T07:12:50;37.90;93.30
7204;DHT22;3643;52.460;13.322;2023-06-26T07:15:18;39.10;92.10
7204;DHT22;3643;52.460;13.322;2023-06-26T07:17:46;39.90;90.40
7204;DHT22;3643;52.460;13.322;2023-06-26T07:20:14;38.00;90.20
7204;DHT22;3643;52.460;13.322;2023-06-26T07:22:43;36.60;91.80
7204;DHT22;3643;52.460;13.322;2023-06-26T07:25:14;34.40;91.90
7204;DHT22;3643;52.460;13.322;2023-06-26T07:27:42;35.00;92.50
7204;DHT22;3643;52.460;13.322;2023-06-26T07:30:12;35.70;92.20
7204;DHT22;3643;52.460;13.322;2023-06-26T07:32:40;37.50;91.00
7204;DHT22;3643;52.460;13.322;2023-06-26T07:35:10;37.00;90.50
7204;DHT22;3643;52.460;13.322;2023-06-26T07:37:38;37.40;90.30
7204;DHT22;3643;52.460;13.322;2023-06-26T07:40:09;38.70;90.20
7204;DHT22;3643;52.460;13.322;2023-06-26T07:42:39;40.40;88.90
7204;DHT22;3643;52.460;13.322;2023-06-26T07:45:09;40.90;86.40
7204;DHT22;3643;52.460;13.322;2023-06-26T07:47:39;41.90;85.10
7204;DHT22;3643;52.460;13.322;2023-06-26T07:50:08;42.60;83.00
7204;DHT22;3643;52.460;13.322;2023-06-26T07:52:37;43.10;81.40
7204;DHT22;3643;52.460;13.322;2023-06-26T07:55:06;43.30;79.10
7204;DHT22;3643;52.460;13.322;2023-06-26T07:57:34;41.30;80.10
7204;DHT22;3643;52.460;13.322;2023-06-26T08:00:05;37.90;81.30
7204;DHT22;3643;52.460;13.322;2023-06-26T08:02:34;36.90;83.70
7204;DHT22;3643;52.460;13.322;2023-06-26T08:05:02;37.20;85.10
7204;DHT22;3643;52.460;13.322;2023-06-26T08:07:31;38.80;83.90
7204;DHT22;3643;52.460;13.322;2023-06-26T08:09:59;39.30;82.50
7204;DHT22;3643;52.460;13.322;2023-06-26T08:12:27;40.40;81.70
7204;DHT22;3643;52.460;13.322;2023-06-26T08:14:56;40.30;80.50
7204;DHT22;3643;52.460;13.322;2023-06-26T08:17:26;39.90;79.20
7204;DHT22;3643;52.460;13.322;2023-06-26T08:19:56;38.30;80.70
7204;DHT22;3643;52.460;13.322;2023-06-26T08:22:24;38.40;82.00
7204;DHT22;3643;52.460;13.322;2023-06-26T08:24:52;37.90;80.50
7204;DHT22;3643;52.460;13.322;2023-06-26T08:27:21;36.80;82.10
7204;DHT22;3643;52.460;13.322;2023-06-26T08:29:49;35.30;84.70
7204;DHT22;3643;52.460;13.322;2023-06-26T08:32:17;34.20;83.00
7204;DHT22;3643;52.460;13.322;2023-06-26T08:34:47;33.00;84.60
7204;DHT22;3643;52.460;13.322;2023-06-26T08:37:15;34.80;85.60
7204;DHT22;3643;52.460;13.322;2023-06-26T08:39:44;37.10;84.00
7204;DHT22;3643;52.460;13.322;2023-06-26T08:42:12;37.90;80.40
7204;DHT22;3643;52.460;13.322;2023-06-26T08:44:40;38.20;78.50
7204;DHT22;3643;52.460;13.322;2023-06-26T08:47:22;36.30;78.20
7204;DHT22;3643;52.460;13.322;2023-06-26T08:49:58;36.20;79.90
7204;DHT22;3643;52.460;13.322;2023-06-26T08:52:35;37.20;78.50
7204;DHT22;3643;52.460;13.322;2023-06-26T08:55:08;35.40;80.00
7204;DHT22;3643;52.460;13.322;2023-06-26T08:57:37;35.30;80.40
7204;DHT22;3643;52.460;13.322;2023-06-26T09:00:06;35.50;82.00
7204;DHT22;3643;52.460;13.322;2023-06-26T09:02:36;36.80;81.90
7204;DHT22;3643;52.460;13.322;2023-06-26T09:05:07;37.20;81.10
7204;DHT22;3643;52.460;13.322;2023-06-26T09:07:35;36.20;80.20
7204;DHT22;3643;52.460;13.322;2023-06-26T09:10:04;35.30;81.80
7204;DHT22;3643;52.460;13.322;2023-06-26T09:12:33;34.60;81.20
7204;DHT22;3643;52.460;13.322;2023-06-26T09:15:03;32.80;83.20
7204;DHT22;3643;52.460;13.322;2023-06-26T09:17:38;32.50;84.90
7204;DHT22;3643;52.460;13.322;2023-06-26T09:20:09;32.30;85.40
7204;DHT22;3643;52.460;13.322;2023-06-26T09:22:40;31.50;86.20
7204;DHT22;3643;52.460;13.322;2023-06-26T09:25:09;31.30;87.00
7204;DHT22;3643;52.460;13.322;2023-06-26T09:27:38;31.40;86.60
7204;DHT22;3643;52.460;13.322;2023-06-26T09:30:07;31.00;86.60
7204;DHT22;3643;52.460;13.322;2023-06-26T09:32:35;30.60;87.50
7204;DHT22;3643;52.460;13.322;2023-06-26T09:35:05;30.70;87.90
7204;DHT22;3643;52.460;13.322;2023-06-26T09:37:36;30.90;89.60
7204;DHT22;3643;52.460;13.322;2023-06-26T09:40:04;31.00;89.10
7204;DHT22;3643;52.460;13.322;2023-06-26T09:42:33;30.60;88.50
7204;DHT22;3643;52.460;13.322;2023-06-26T09:45:02;30.50;89.20
7204;DHT22;3643;52.460;13.322;2023-06-26T09:47:32;30.50;89.20
7204;DHT22;3643;52.460;13.322;2023-06-26T09:50:03;30.40;89.10
7204;DHT22;3643;52.460;13.322;2023-06-26T09:52:32;30.20;89.60
7204;DHT22;3643;52.460;13.322;2023-06-26T09:55:10;30.20;90.30
7204;DHT22;3643;52.460;13.322;2023-06-26T09:57:39;30.40;90.80
7204;DHT22;3643;52.460;13.322;2023-06-26T10:00:09;30.20;89.50
7204;DHT22;3643;52.460;13.322;2023-06-26T10:02:39;30.20;90.10
7204;DHT22;3643;52.460;13.322;2023-06-26T10:05:08;30.30;90.40
7204;DHT22;3643;52.460;13.322;2023-06-26T10:07:37;30.50;90.90
7204;DHT22;3643;52.460;13.322;2023-06-26T10:10:08;30.60;91.30
7204;DHT22;3643;52.460;13.322;2023-06-26T10:12:38;30.20;90.70
7204;DHT22;3643;52.460;13.322;2023-06-26T10:15:06;30.30;90.50
7204;DHT22;3643;52.460;13.322;2023-06-26T10:17:43;30.10;90.00
7204;DHT22;3643;52.460;13.322;2023-06-26T10:20:12;29.80;90.30
7204;DHT22;3643;52.460;13.322;2023-06-26T10:22:44;29.90;90.90
7204;DHT22;3643;52.460;13.322;2023-06-26T10:25:18;30.10;90.80
7204;DHT22;3643;52.460;13.322;2023-06-26T10:27:51;30.20;90.70
7204;DHT22;3643;52.460;13.322;2023-06-26T10:30:26;30.40;90.70
7204;DHT22;3643;52.460;13.322;2023-06-26T10:32:56;30.40;90.40
7204;DHT22;3643;52.460;13.322;2023-06-26T10:35:25;30.50;90.40
7204;DHT22;3643;52.460;13.322;2023-06-26T10:38:01;30.60;90.10
7204;DHT22;3643;52.460;13.322;2023-06-26T10:40:42;30.50;90.30
7204;DHT22;3643;52.460;13.322;2023-06-26T10:43:13;30.60;90.50
7204;DHT22;3643;52.460;13.322;2023-06-26T10:45:45;30.60;90.20
7204;DHT22;3643;52.460;13.322;2023-06-26T10:48:19;30.60;90.40
7204;DHT22;3643;52.460;13.322;2023-06-26T10:50:47;30.80;90.10
7204;DHT22;3643;52.460;13.322;2023-06-26T10:53:22;30.80;90.70
7204;DHT22;3643;52.460;13.322;2023-06-26T10:55:59;30.90;90.30
7204;DHT22;3643;52.460;13.322;2023-06-26T10:58:34;30.80;88.90
7204;DHT22;3643;52.460;13.322;2023-06-26T11:01:16;30.60;89.40
7204;DHT22;3643;52.460;13.322;2023-06-26T11:03:47;30.70;89.90
7204;DHT22;3643;52.460;13.322;2023-06-26T11:06:21;30.90;90.40
7204;DHT22;3643;52.460;13.322;2023-06-26T11:08:50;30.80;90.70
7204;DHT22;3643;52.460;13.322;2023-06-26T11:11:22;30.90;90.40
7204;DHT22;3643;52.460;13.322;2023-06-26T11:14:11;30.70;89.10
7204;DHT22;3643;52.460;13.322;2023-06-26T11:16:42;30.80;90.10
7204;DHT22;3643;52.460;13.322;2023-06-26T11:19:11;30.80;89.00
7204;DHT22;3643;52.460;13.322;2023-06-26T11:21:39;30.80;89.20
7204;DHT22;3643;52.460;13.322;2023-06-26T11:24:09;31.00;88.50
7204;DHT22;3643;52.460;13.322;2023-06-26T11:26:40;30.80;88.50
7204;DHT22;3643;52.460;13.322;2023-06-26T11:29:09;30.80;89.60
7204;DHT22;3643;52.460;13.322;2023-06-26T11:31:39;31.00;90.00
7204;DHT22;3643;52.460;13.322;2023-06-26T11:34:09;30.90;87.90
7204;DHT22;3643;52.460;13.322;2023-06-26T11:36:39;30.90;88.20
7204;DHT22;3643;52.460;13.322;2023-06-26T11:39:09;30.80;88.00
7204;DHT22;3643;52.460;13.322;2023-06-26T11:41:40;30.90;88.60
7204;DHT22;3643;52.460;13.322;2023-06-26T11:44:10;30.90;87.20
7204;DHT22;3643;52.460;13.322;2023-06-26T11:46:38;30.80;88.00
7204;DHT22;3643;52.460;13.322;2023-06-26T11:49:07;30.80;87.60
7204;DHT22;3643;52.460;13.322;2023-06-26T11:51:36;30.80;87.50
7204;DHT22;3643;52.460;13.322;2023-06-26T11:54:04;30.80;88.20
7204;DHT22;3643;52.460;13.322;2023-06-26T11:56:33;30.80;87.40
7204;DHT22;3643;52.460;13.322;2023-06-26T11:59:04;30.80;87.20
7204;DHT22;3643;52.460;13.322;2023-06-26T12:01:39;30.90;88.00
7204;DHT22;3643;52.460;13.322;2023-06-26T12:04:10;31.00;87.00
7204;DHT22;3643;52.460;13.322;2023-06-26T12:06:42;31.00;87.80
7204;DHT22;3643;52.460;13.322;2023-06-26T12:09:11;31.20;89.10
7204;DHT22;3643;52.460;13.322;2023-06-26T12:11:42;31.10;86.70
7204;DHT22;3643;52.460;13.322;2023-06-26T12:14:12;31.00;86.50
7204;DHT22;3643;52.460;13.322;2023-06-26T12:16:52;31.20;87.70
7204;DHT22;3643;52.460;13.322;2023-06-26T12:19:25;31.30;88.70
7204;DHT22;3643;52.460;13.322;2023-06-26T12:21:54;31.50;87.70
7204;DHT22;3643;52.460;13.322;2023-06-26T12:24:23;31.00;87.60
7204;DHT22;3643;52.460;13.322;2023-06-26T12:26:54;30.80;87.90
7204;DHT22;3643;52.460;13.322;2023-06-26T12:29:31;31.00;88.90
7204;DHT22;3643;52.460;13.322;2023-06-26T12:32:02;31.20;88.20
7204;DHT22;3643;52.460;13.322;2023-06-26T12:34:32;31.10;88.60
7204;DHT22;3643;52.460;13.322;2023-06-26T12:37:02;31.20;88.40
7204;DHT22;3643;52.460;13.322;2023-06-26T12:39:46;31.10;88.10
7204;DHT22;3643;52.460;13.322;2023-06-26T12:42:15;31.20;88.20
7204;DHT22;3643;52.460;13.322;2023-06-26T12:44:44;31.30;88.10
7204;DHT22;3643;52.460;13.322;2023-06-26T12:47:14;31.50;88.90
7204;DHT22;3643;52.460;13.322;2023-06-26T12:49:44;31.70;88.60
7204;DHT22;3643;52.460;13.322;2023-06-26T12:52:14;31.50;87.40
7204;DHT22;3643;52.460;13.322;2023-06-26T12:54:43;31.30;87.50
7204;DHT22;3643;52.460;13.322;2023-06-26T12:57:14;31.40;87.80
7204;DHT22;3643;52.460;13.322;2023-06-26T12:59:42;31.30;87.60
7204;DHT22;3643;52.460;13.322;2023-06-26T13:02:11;31.00;88.00
7204;DHT22;3643;52.460;13.322;2023-06-26T13:04:41;31.00;88.20
7204;DHT22;3643;52.460;13.322;2023-06-26T13:07:11;31.10;88.90
7204;DHT22;3643;52.460;13.322;2023-06-26T13:09:40;31.30;89.30
7204;DHT22;3643;52.460;13.322;2023-06-26T13:12:08;31.40;88.50
7204;DHT22;3643;52.460;13.322;2023-06-26T13:14:37;31.10;88.00
7204;DHT22;3643;52.460;13.322;2023-06-26T13:17:06;30.90;88.10
7204;DHT22;3643;52.460;13.322;2023-06-26T13:19:36;30.70;89.00
7204;DHT22;3643;52.460;13.322;2023-06-26T13:22:06;30.70;88.90
7204;DHT22;3643;52.460;13.322;2023-06-26T13:24:34;30.80;88.70
7204;DHT22;3643;52.460;13.322;2023-06-26T13:27:03;30.80;89.50
7204;DHT22;3643;52.460;13.322;2023-06-26T13:29:31;30.90;90.10
7204;DHT22;3643;52.460;13.322;2023-06-26T13:32:00;31.00;90.10
7204;DHT22;3643;52.460;13.322;2023-06-26T13:34:28;30.80;90.10
7204;DHT22;3643;52.460;13.322;2023-06-26T13:36:57;30.80;90.00
7204;DHT22;3643;52.460;13.322;2023-06-26T13:39:28;30.80;90.30
7204;DHT22;3643;52.460;13.322;2023-06-26T13:41:56;30.90;89.70
7204;DHT22;3643;52.460;13.322;2023-06-26T13:44:25;30.90;89.80
7204;DHT22;3643;52.460;13.322;2023-06-26T13:47:07;31.20;90.00
7204;DHT22;3643;52.460;13.322;2023-06-26T13:49:36;31.40;90.50
7204;DHT22;3643;52.460;13.322;2023-06-26T13:52:05;31.70;90.10
7204;DHT22;3643;52.460;13.322;2023-06-26T13:54:36;31.70;87.90
7204;DHT22;3643;52.460;13.322;2023-06-26T13:57:06;31.40;88.60
7204;DHT22;3643;52.460;13.322;2023-06-26T13:59:37;31.40;87.00
7204;DHT22;3643;52.460;13.322;2023-06-26T14:02:07;31.30;87.20
7204;DHT22;3643;52.460;13.322;2023-06-26T14:04:35;30.90;87.60
7204;DHT22;3643;52.460;13.322;2023-06-26T14:07:05;30.90;88.60
7204;DHT22;3643;52.460;13.322;2023-06-26T14:09:35;30.70;89.20
7204;DHT22;3643;52.460;13.322;2023-06-26T14:12:04;30.60;89.40
7204;DHT22;3643;52.460;13.322;2023-06-26T14:14:33;30.40;90.10
7204;DHT22;3643;52.460;13.322;2023-06-26T14:17:01;30.20;90.00
7204;DHT22;3643;52.460;13.322;2023-06-26T14:19:29;29.80;91.30
7204;DHT22;3643;52.460;13.322;2023-06-26T14:21:58;28.90;93.80
7204;DHT22;3643;52.460;13.322;2023-06-26T14:24:26;27.30;99.30
7204;DHT22;3643;52.460;13.322;2023-06-26T14:26:56;25.00;99.90
7204;DHT22;3643;52.460;13.322;2023-06-26T14:29:24;22.90;99.90
7204;DHT22;3643;52.460;13.322;2023-06-26T14:31:52;21.20;99.90
7204;DHT22;3643;52.460;13.322;2023-06-26T14:34:22;20.10;99.90
7204;DHT22;3643;52.460;13.322;2023-06-26T14:36:51;19.40;99.90
7204;DHT22;3643;52.460;13.322;2023-06-26T14:39:19;19.20;99.90
7204;DHT22;3643;52.460;13.322;2023-06-26T14:41:48;19.00;99.90
7204;DHT22;3643;52.460;13.322;2023-06-26T14:44:18;19.00;99.90
7204;DHT22;3643;52.460;13.322;2023-06-26T14:46:47;18.90;99.90
7204;DHT22;3643;52.460;13.322;2023-06-26T14:49:15;19.20;99.90
7204;DHT22;3643;52.460;13.322;2023-06-26T14:51:43;19.30;99.90
7204;DHT22;3643;52.460;13.322;2023-06-26T14:54:11;19.30;99.90
7204;DHT22;3643;52.460;13.322;2023-06-26T14:56:40;19.40;99.90
7204;DHT22;3643;52.460;13.322;2023-06-26T14:59:10;19.40;99.90
7204;DHT22;3643;52.460;13.322;2023-06-26T15:01:41;19.40;99.90
7204;DHT22;3643;52.460;13.322;2023-06-26T15:04:09;19.30;99.90
7204;DHT22;3643;52.460;13.322;2023-06-26T15:06:38;19.30;99.90
7204;DHT22;3643;52.460;13.322;2023-06-26T15:09:06;19.10;99.90
7204;DHT22;3643;52.460;13.322;2023-06-26T15:11:35;19.00;99.90
7204;DHT22;3643;52.460;13.322;2023-06-26T15:14:04;19.00;99.90
7204;DHT22;3643;52.460;13.322;2023-06-26T15:16:32;19.00;99.90
7204;DHT22;3643;52.460;13.322;2023-06-26T15:19:02;19.00;99.90
7204;DHT22;3643;52.460;13.322;2023-06-26T15:21:30;19.10;99.90
7204;DHT22;3643;52.460;13.322;2023-06-26T15:23:58;19.10;99.90
7204;DHT22;3643;52.460;13.322;2023-06-26T15:26:27;19.00;99.90
7204;DHT22;3643;52.460;13.322;2023-06-26T15:28:55;18.90;99.90
7204;DHT22;3643;52.460;13.322;2023-06-26T15:31:23;19.00;99.90
7204;DHT22;3643;52.460;13.322;2023-06-26T15:33:51;19.00;99.90
7204;DHT22;3643;52.460;13.322;2023-06-26T15:36:21;19.00;99.90
7204;DHT22;3643;52.460;13.322;2023-06-26T15:38:49;18.90;99.90
7204;DHT22;3643;52.460;13.322;2023-06-26T15:41:18;18.90;99.90
7204;DHT22;3643;52.460;13.322;2023-06-26T15:43:46;18.90;99.90
7204;DHT22;3643;52.460;13.322;2023-06-26T15:46:14;19.00;99.90
7204;DHT22;3643;52.460;13.322;2023-06-26T15:48:43;19.10;99.90
7204;DHT22;3643;52.460;13.322;2023-06-26T15:51:13;19.10;99.90
7204;DHT22;3643;52.460;13.322;2023-06-26T15:53:43;19.10;99.90
7204;DHT22;3643;52.460;13.322;2023-06-26T15:56:11;19.10;99.90
7204;DHT22;3643;52.460;13.322;2023-06-26T15:58:43;19.20;99.90
7204;DHT22;3643;52.460;13.322;2023-06-26T16:01:14;19.30;99.90